sensor_id;sensor_type;location;lat;lon;timestamp;temperature;humidity
76291;DHT22;65100;46.884;17.410;2023-07-22T00:01:23;18.80;85.65
76291;DHT22;65100;46.884;17.410;2023-07-22T00:03:48;18.41;86.99
76291;DHT22;65100;46.884;17.410;2023-07-22T00:06:14;18.39;87.15
76291;DHT22;65100;46.884;17.410;2023-07-22T00:08:42;18.50;87.22
76291;DHT22;65100;46.884;17.410;2023-07-22T00:11:08;18.78;86.48
76291;DHT22;65100;46.884;17.410;2023-07-22T00:13:34;18.94;84.75
76291;DHT22;65100;46.884;17.410;2023-07-22T00:16:01;18.91;84.72
76291;DHT22;65100;46.884;17.410;2023-07-22T00:18:29;18.61;85.91
76291;DHT22;65100;46.884;17.410;2023-07-22T00:20:56;18.49;86.33
76291;DHT22;65100;46.884;17.410;2023-07-22T00:23:22;18.75;85.57
76291;DHT22;65100;46.884;17.410;2023-07-22T00:25:48;18.81;85.40
76291;DHT22;65100;46.884;17.410;2023-07-22T00:28:14;19.01;84.71
76291;DHT22;65100;46.884;17.410;2023-07-22T00:30:39;18.81;84.53
76291;DHT22;65100;46.884;17.410;2023-07-22T00:33:05;18.93;84.71
76291;DHT22;65100;46.884;17.410;2023-07-22T00:35:31;18.83;84.70
76291;DHT22;65100;46.884;17.410;2023-07-22T00:37:57;18.75;85.15
76291;DHT22;65100;46.884;17.410;2023-07-22T00:40:23;18.23;86.86
76291;DHT22;65100;46.884;17.410;2023-07-22T00:42:49;18.06;88.06
76291;DHT22;65100;46.884;17.410;2023-07-22T00:45:14;18.05;87.95
76291;DHT22;65100;46.884;17.410;2023-07-22T00:47:40;18.00;87.78
76291;DHT22;65100;46.884;17.410;2023-07-22T00:50:07;17.97;88.20
76291;DHT22;65100;46.884;17.410;2023-07-22T00:52:34;18.05;87.91
76291;DHT22;65100;46.884;17.410;2023-07-22T00:54:59;18.36;86.29
76291;DHT22;65100;46.884;17.410;2023-07-22T00:57:26;18.27;86.52
76291;DHT22;65100;46.884;17.410;2023-07-22T00:59:51;18.47;85.29
76291;DHT22;65100;46.884;17.410;2023-07-22T01:02:18;18.57;84.47
76291;DHT22;65100;46.884;17.410;2023-07-22T01:04:44;18.57;84.35
76291;DHT22;65100;46.884;17.410;2023-07-22T01:07:10;18.47;84.58
76291;DHT22;65100;46.884;17.410;2023-07-22T01:09:40;18.26;85.85
76291;DHT22;65100;46.884;17.410;2023-07-22T01:12:07;18.34;85.34
76291;DHT22;65100;46.884;17.410;2023-07-22T01:14:34;18.03;86.59
76291;DHT22;65100;46.884;17.410;2023-07-22T01:17:05;17.87;87.59
76291;DHT22;65100;46.884;17.410;2023-07-22T01:19:32;17.92;87.59
76291;DHT22;65100;46.884;17.410;2023-07-22T01:22:03;18.41;85.81
76291;DHT22;65100;46.884;17.410;2023-07-22T01:24:29;18.54;85.07
76291;DHT22;65100;46.884;17.410;2023-07-22T01:26:55;18.54;84.35
76291;DHT22;65100;46.884;17.410;2023-07-22T01:29:24;18.25;85.11
76291;DHT22;65100;46.884;17.410;2023-07-22T01:31:54;18.30;85.72
76291;DHT22;65100;46.884;17.410;2023-07-22T01:34:21;18.00;85.62
76291;DHT22;65100;46.884;17.410;2023-07-22T01:36:47;18.17;85.65
76291;DHT22;65100;46.884;17.410;2023-07-22T01:39:17;17.93;85.57
76291;DHT22;65100;46.884;17.410;2023-07-22T01:41:44;18.16;85.25
76291;DHT22;65100;46.884;17.410;2023-07-22T01:44:09;18.00;85.64
76291;DHT22;65100;46.884;17.410;2023-07-22T01:46:36;18.22;83.88
76291;DHT22;65100;46.884;17.410;2023-07-22T01:49:04;18.16;84.09
76291;DHT22;65100;46.884;17.410;2023-07-22T01:51:30;18.16;83.86
76291;DHT22;65100;46.884;17.410;2023-07-22T01:53:57;18.09;84.40
76291;DHT22;65100;46.884;17.410;2023-07-22T01:56:23;17.96;84.84
76291;DHT22;65100;46.884;17.410;2023-07-22T01:58:49;17.90;85.44
76291;DHT22;65100;46.884;17.410;2023-07-22T02:01:14;18.09;84.20
76291;DHT22;65100;46.884;17.410;2023-07-22T02:03:42;17.72;85.95
76291;DHT22;65100;46.884;17.410;2023-07-22T02:06:08;17.87;85.21
76291;DHT22;65100;46.884;17.410;2023-07-22T02:08:36;17.86;84.84
76291;DHT22;65100;46.884;17.410;2023-07-22T02:11:06;17.92;85.10
76291;DHT22;65100;46.884;17.410;2023-07-22T02:13:33;17.93;84.92
76291;DHT22;65100;46.884;17.410;2023-07-22T02:16:00;17.85;85.07
76291;DHT22;65100;46.884;17.410;2023-07-22T02:18:26;18.00;84.08
76291;DHT22;65100;46.884;17.410;2023-07-22T02:20:51;17.66;85.53
76291;DHT22;65100;46.884;17.410;2023-07-22T02:23:18;17.45;86.91
76291;DHT22;65100;46.884;17.410;2023-07-22T02:25:43;17.61;86.72
76291;DHT22;65100;46.884;17.410;2023-07-22T02:28:09;17.75;85.45
76291;DHT22;65100;46.884;17.410;2023-07-22T02:30:36;17.85;85.97
76291;DHT22;65100;46.884;17.410;2023-07-22T02:33:02;17.95;84.85
76291;DHT22;65100;46.884;17.410;2023-07-22T02:35:28;17.99;85.20
76291;DHT22;65100;46.884;17.410;2023-07-22T02:37:54;17.93;84.09
76291;DHT22;65100;46.884;17.410;2023-07-22T02:40:19;17.93;85.16
76291;DHT22;65100;46.884;17.410;2023-07-22T02:42:45;17.93;84.88
76291;DHT22;65100;46.884;17.410;2023-07-22T02:45:11;17.96;84.80
76291;DHT22;65100;46.884;17.410;2023-07-22T02:47:38;17.87;85.28
76291;DHT22;65100;46.884;17.410;2023-07-22T02:50:05;18.12;84.89
76291;DHT22;65100;46.884;17.410;2023-07-22T02:52:31;17.78;85.27
76291;DHT22;65100;46.884;17.410;2023-07-22T02:55:14;17.65;86.14
76291;DHT22;65100;46.884;17.410;2023-07-22T02:57:41;17.78;85.75
76291;DHT22;65100;46.884;17.410;2023-07-22T03:00:08;17.93;85.29
76291;DHT22;65100;46.884;17.410;2023-07-22T03:02:37;17.81;85.82
76291;DHT22;65100;46.884;17.410;2023-07-22T03:05:04;17.83;85.94
76291;DHT22;65100;46.884;17.410;2023-07-22T03:07:36;17.71;86.44
76291;DHT22;65100;46.884;17.410;2023-07-22T03:10:03;17.48;87.49
76291;DHT22;65100;46.884;17.410;2023-07-22T03:12:29;17.48;87.80
76291;DHT22;65100;46.884;17.410;2023-07-22T03:14:54;17.79;86.69
76291;DHT22;65100;46.884;17.410;2023-07-22T03:17:20;18.00;84.94
76291;DHT22;65100;46.884;17.410;2023-07-22T03:19:46;18.09;84.62
76291;DHT22;65100;46.884;17.410;2023-07-22T03:22:14;18.13;84.27
76291;DHT22;65100;46.884;17.410;2023-07-22T03:24:40;18.09;84.61
76291;DHT22;65100;46.884;17.410;2023-07-22T03:27:05;18.07;84.76
76291;DHT22;65100;46.884;17.410;2023-07-22T03:29:32;18.05;84.91
76291;DHT22;65100;46.884;17.410;2023-07-22T03:31:57;18.09;84.62
76291;DHT22;65100;46.884;17.410;2023-07-22T03:34:23;18.03;84.90
76291;DHT22;65100;46.884;17.410;2023-07-22T03:36:49;17.86;85.63
76291;DHT22;65100;46.884;17.410;2023-07-22T03:39:14;18.03;85.39
76291;DHT22;65100;46.884;17.410;2023-07-22T03:41:40;18.03;85.49
76291;DHT22;65100;46.884;17.410;2023-07-22T03:44:05;18.12;85.27
76291;DHT22;65100;46.884;17.410;2023-07-22T03:46:31;18.06;85.01
76291;DHT22;65100;46.884;17.410;2023-07-22T03:48:56;18.25;84.34
76291;DHT22;65100;46.884;17.410;2023-07-22T03:51:22;18.26;84.55
76291;DHT22;65100;46.884;17.410;2023-07-22T03:54:08;18.53;83.89
76291;DHT22;65100;46.884;17.410;2023-07-22T03:56:54;18.70;82.74
76291;DHT22;65100;46.884;17.410;2023-07-22T03:59:20;18.88;82.69
76291;DHT22;65100;46.884;17.410;2023-07-22T04:01:46;19.27;81.34
76291;DHT22;65100;46.884;17.410;2023-07-22T04:04:12;19.01;82.19
76291;DHT22;65100;46.884;17.410;2023-07-22T04:06:38;18.71;82.83
76291;DHT22;65100;46.884;17.410;2023-07-22T04:09:03;18.64;83.74
76291;DHT22;65100;46.884;17.410;2023-07-22T04:11:29;18.97;83.55
76291;DHT22;65100;46.884;17.410;2023-07-22T04:13:54;19.32;82.15
76291;DHT22;65100;46.884;17.410;2023-07-22T04:16:20;19.71;80.44
76291;DHT22;65100;46.884;17.410;2023-07-22T04:18:45;20.17;78.59
76291;DHT22;65100;46.884;17.410;2023-07-22T04:21:11;20.64;77.21
76291;DHT22;65100;46.884;17.410;2023-07-22T04:23:36;20.73;77.25
76291;DHT22;65100;46.884;17.410;2023-07-22T04:26:03;20.97;75.99
76291;DHT22;65100;46.884;17.410;2023-07-22T04:28:33;21.41;74.82
76291;DHT22;65100;46.884;17.410;2023-07-22T04:30:59;20.83;76.95
76291;DHT22;65100;46.884;17.410;2023-07-22T04:33:26;20.95;76.55
76291;DHT22;65100;46.884;17.410;2023-07-22T04:35:57;21.72;75.40
76291;DHT22;65100;46.884;17.410;2023-07-22T04:38:23;22.39;72.91
76291;DHT22;65100;46.884;17.410;2023-07-22T04:40:48;22.30;72.75
76291;DHT22;65100;46.884;17.410;2023-07-22T04:43:14;22.70;71.92
76291;DHT22;65100;46.884;17.410;2023-07-22T04:45:39;22.93;70.72
76291;DHT22;65100;46.884;17.410;2023-07-22T04:48:06;22.67;71.89
76291;DHT22;65100;46.884;17.410;2023-07-22T04:50:32;22.19;73.54
76291;DHT22;65100;46.884;17.410;2023-07-22T04:52:57;21.58;76.81
76291;DHT22;65100;46.884;17.410;2023-07-22T04:55:22;21.61;76.11
76291;DHT22;65100;46.884;17.410;2023-07-22T04:57:48;21.34;77.98
76291;DHT22;65100;46.884;17.410;2023-07-22T05:00:14;22.03;75.04
76291;DHT22;65100;46.884;17.410;2023-07-22T05:02:44;22.68;72.51
76291;DHT22;65100;46.884;17.410;2023-07-22T05:05:13;22.98;71.08
76291;DHT22;65100;46.884;17.410;2023-07-22T05:07:39;23.37;70.31
76291;DHT22;65100;46.884;17.410;2023-07-22T05:10:06;23.28;69.68
76291;DHT22;65100;46.884;17.410;2023-07-22T05:12:40;23.40;69.56
76291;DHT22;65100;46.884;17.410;2023-07-22T05:15:06;23.48;68.33
76291;DHT22;65100;46.884;17.410;2023-07-22T05:17:32;23.32;69.81
76291;DHT22;65100;46.884;17.410;2023-07-22T05:19:58;23.27;69.07
76291;DHT22;65100;46.884;17.410;2023-07-22T05:22:24;23.48;67.83
76291;DHT22;65100;46.884;17.410;2023-07-22T05:24:49;23.66;67.53
76291;DHT22;65100;46.884;17.410;2023-07-22T05:27:16;23.68;68.62
76291;DHT22;65100;46.884;17.410;2023-07-22T05:29:42;23.69;66.41
76291;DHT22;65100;46.884;17.410;2023-07-22T05:32:08;23.86;66.88
76291;DHT22;65100;46.884;17.410;2023-07-22T05:34:34;23.85;66.11
76291;DHT22;65100;46.884;17.410;2023-07-22T05:36:59;23.81;66.89
76291;DHT22;65100;46.884;17.410;2023-07-22T05:39:25;23.64;67.36
76291;DHT22;65100;46.884;17.410;2023-07-22T05:41:51;23.68;67.21
76291;DHT22;65100;46.884;17.410;2023-07-22T05:44:16;23.76;67.51
76291;DHT22;65100;46.884;17.410;2023-07-22T05:46:42;23.71;66.80
76291;DHT22;65100;46.884;17.410;2023-07-22T05:49:08;23.62;66.75
76291;DHT22;65100;46.884;17.410;2023-07-22T05:51:34;23.57;67.97
76291;DHT22;65100;46.884;17.410;2023-07-22T05:53:59;23.59;67.19
76291;DHT22;65100;46.884;17.410;2023-07-22T05:56:25;23.71;67.53
76291;DHT22;65100;46.884;17.410;2023-07-22T05:58:51;23.78;66.80
76291;DHT22;65100;46.884;17.410;2023-07-22T06:01:16;23.79;66.99
76291;DHT22;65100;46.884;17.410;2023-07-22T06:03:42;24.16;66.25
76291;DHT22;65100;46.884;17.410;2023-07-22T06:06:09;24.29;64.51
76291;DHT22;65100;46.884;17.410;2023-07-22T06:08:35;24.43;63.96
76291;DHT22;65100;46.884;17.410;2023-07-22T06:11:00;24.63;62.67
76291;DHT22;65100;46.884;17.410;2023-07-22T06:13:25;25.10;62.61
76291;DHT22;65100;46.884;17.410;2023-07-22T06:15:52;25.78;60.95
76291;DHT22;65100;46.884;17.410;2023-07-22T06:18:17;25.92;59.47
76291;DHT22;65100;46.884;17.410;2023-07-22T06:20:44;25.78;60.68
76291;DHT22;65100;46.884;17.410;2023-07-22T06:23:09;26.06;58.79
76291;DHT22;65100;46.884;17.410;2023-07-22T06:25:56;26.59;56.37
76291;DHT22;65100;46.884;17.410;2023-07-22T06:28:21;26.70;58.00
76291;DHT22;65100;46.884;17.410;2023-07-22T06:30:47;26.82;57.81
76291;DHT22;65100;46.884;17.410;2023-07-22T06:33:12;26.72;55.91
76291;DHT22;65100;46.884;17.410;2023-07-22T06:35:38;27.00;55.75
76291;DHT22;65100;46.884;17.410;2023-07-22T06:38:03;27.50;54.22
76291;DHT22;65100;46.884;17.410;2023-07-22T06:40:29;27.80;53.02
76291;DHT22;65100;46.884;17.410;2023-07-22T06:42:54;28.26;52.75
76291;DHT22;65100;46.884;17.410;2023-07-22T06:45:20;28.46;51.07
76291;DHT22;65100;46.884;17.410;2023-07-22T06:47:45;29.02;51.71
76291;DHT22;65100;46.884;17.410;2023-07-22T06:50:12;28.96;50.19
76291;DHT22;65100;46.884;17.410;2023-07-22T06:52:37;28.41;52.41
76291;DHT22;65100;46.884;17.410;2023-07-22T06:55:03;28.02;51.77
76291;DHT22;65100;46.884;17.410;2023-07-22T06:57:30;27.82;53.45
76291;DHT22;65100;46.884;17.410;2023-07-22T06:59:56;27.68;54.25
76291;DHT22;65100;46.884;17.410;2023-07-22T07:02:22;27.78;52.48
76291;DHT22;65100;46.884;17.410;2023-07-22T07:04:48;28.18;52.09
76291;DHT22;65100;46.884;17.410;2023-07-22T07:07:14;28.72;50.97
76291;DHT22;65100;46.884;17.410;2023-07-22T07:09:40;29.14;50.45
76291;DHT22;65100;46.884;17.410;2023-07-22T07:12:06;27.98;54.22
76291;DHT22;65100;46.884;17.410;2023-07-22T07:14:35;27.24;53.03
76291;DHT22;65100;46.884;17.410;2023-07-22T07:17:01;26.66;55.09
76291;DHT22;65100;46.884;17.410;2023-07-22T07:19:28;27.03;55.02
76291;DHT22;65100;46.884;17.410;2023-07-22T07:21:53;26.90;54.14
76291;DHT22;65100;46.884;17.410;2023-07-22T07:24:19;26.75;53.91
76291;DHT22;65100;46.884;17.410;2023-07-22T07:26:44;26.59;53.18
76291;DHT22;65100;46.884;17.410;2023-07-22T07:29:10;27.41;51.34
76291;DHT22;65100;46.884;17.410;2023-07-22T07:31:37;27.71;50.30
76291;DHT22;65100;46.884;17.410;2023-07-22T07:34:02;28.06;49.98
76291;DHT22;65100;46.884;17.410;2023-07-22T07:36:28;28.25;48.72
76291;DHT22;65100;46.884;17.410;2023-07-22T07:38:54;28.44;48.99
76291;DHT22;65100;46.884;17.410;2023-07-22T07:41:20;28.69;48.55
76291;DHT22;65100;46.884;17.410;2023-07-22T07:43:46;28.66;48.42
76291;DHT22;65100;46.884;17.410;2023-07-22T07:48:43;27.33;51.69
76291;DHT22;65100;46.884;17.410;2023-07-22T07:51:08;27.70;52.03
76291;DHT22;65100;46.884;17.410;2023-07-22T07:53:34;27.84;50.12
76291;DHT22;65100;46.884;17.410;2023-07-22T07:55:59;27.94;52.01
76291;DHT22;65100;46.884;17.410;2023-07-22T07:58:25;28.72;48.83
76291;DHT22;65100;46.884;17.410;2023-07-22T08:00:50;29.19;45.77
76291;DHT22;65100;46.884;17.410;2023-07-22T08:03:16;29.54;45.73
76291;DHT22;65100;46.884;17.410;2023-07-22T08:05:41;29.46;44.45
76291;DHT22;65100;46.884;17.410;2023-07-22T08:08:07;29.80;45.15
76291;DHT22;65100;46.884;17.410;2023-07-22T08:10:32;30.05;44.57
76291;DHT22;65100;46.884;17.410;2023-07-22T08:12:58;30.08;44.76
76291;DHT22;65100;46.884;17.410;2023-07-22T08:15:23;29.37;47.03
76291;DHT22;65100;46.884;17.410;2023-07-22T08:17:49;29.30;48.02
76291;DHT22;65100;46.884;17.410;2023-07-22T08:20:14;28.36;47.19
76291;DHT22;65100;46.884;17.410;2023-07-22T08:22:40;28.02;49.00
76291;DHT22;65100;46.884;17.410;2023-07-22T08:25:06;27.62;49.12
76291;DHT22;65100;46.884;17.410;2023-07-22T08:27:32;27.44;49.35
76291;DHT22;65100;46.884;17.410;2023-07-22T08:29:58;27.46;48.03
76291;DHT22;65100;46.884;17.410;2023-07-22T08:32:23;27.38;49.63
76291;DHT22;65100;46.884;17.410;2023-07-22T08:34:49;27.43;49.45
76291;DHT22;65100;46.884;17.410;2023-07-22T08:37:14;27.51;50.14
76291;DHT22;65100;46.884;17.410;2023-07-22T08:39:40;27.62;49.61
76291;DHT22;65100;46.884;17.410;2023-07-22T08:42:05;27.58;48.20
76291;DHT22;65100;46.884;17.410;2023-07-22T08:44:33;27.36;49.23
76291;DHT22;65100;46.884;17.410;2023-07-22T08:47:02;27.27;49.83
76291;DHT22;65100;46.884;17.410;2023-07-22T08:49:35;27.22;49.35
76291;DHT22;65100;46.884;17.410;2023-07-22T08:52:01;27.10;49.54
76291;DHT22;65100;46.884;17.410;2023-07-22T08:54:27;27.20;51.57
76291;DHT22;65100;46.884;17.410;2023-07-22T08:56:54;27.24;49.05
76291;DHT22;65100;46.884;17.410;2023-07-22T08:59:20;27.07;47.49
76291;DHT22;65100;46.884;17.410;2023-07-22T09:01:47;27.10;49.88
76291;DHT22;65100;46.884;17.410;2023-07-22T09:04:13;27.13;49.45
76291;DHT22;65100;46.884;17.410;2023-07-22T09:06:41;27.07;48.96
76291;DHT22;65100;46.884;17.410;2023-07-22T09:09:07;27.06;50.98
76291;DHT22;65100;46.884;17.410;2023-07-22T09:11:34;27.17;49.33
76291;DHT22;65100;46.884;17.410;2023-07-22T09:14:02;27.14;50.03
76291;DHT22;65100;46.884;17.410;2023-07-22T09:16:28;26.78;47.68
76291;DHT22;65100;46.884;17.410;2023-07-22T09:18:57;26.84;48.30
76291;DHT22;65100;46.884;17.410;2023-07-22T09:21:23;26.97;47.95
76291;DHT22;65100;46.884;17.410;2023-07-22T09:23:48;27.26;46.82
76291;DHT22;65100;46.884;17.410;2023-07-22T09:26:20;27.48;45.97
76291;DHT22;65100;46.884;17.410;2023-07-22T09:31:18;27.81;46.91
76291;DHT22;65100;46.884;17.410;2023-07-22T09:33:44;27.64;44.97
76291;DHT22;65100;46.884;17.410;2023-07-22T09:36:10;27.58;47.39
76291;DHT22;65100;46.884;17.410;2023-07-22T09:38:36;27.77;47.30
76291;DHT22;65100;46.884;17.410;2023-07-22T09:41:05;27.67;47.40
76291;DHT22;65100;46.884;17.410;2023-07-22T09:43:31;27.81;46.78
76291;DHT22;65100;46.884;17.410;2023-07-22T09:46:05;27.90;45.28
76291;DHT22;65100;46.884;17.410;2023-07-22T09:48:39;27.92;47.45
76291;DHT22;65100;46.884;17.410;2023-07-22T09:51:05;27.78;47.68
76291;DHT22;65100;46.884;17.410;2023-07-22T09:53:31;27.54;46.43
76291;DHT22;65100;46.884;17.410;2023-07-22T09:56:05;27.37;47.34
76291;DHT22;65100;46.884;17.410;2023-07-22T09:58:32;27.33;48.10
76291;DHT22;65100;46.884;17.410;2023-07-22T10:00:58;27.26;48.50
76291;DHT22;65100;46.884;17.410;2023-07-22T10:03:29;27.26;49.67
76291;DHT22;65100;46.884;17.410;2023-07-22T10:05:58;27.06;47.13
76291;DHT22;65100;46.884;17.410;2023-07-22T10:08:26;27.11;47.97
76291;DHT22;65100;46.884;17.410;2023-07-22T10:10:57;27.14;47.67
76291;DHT22;65100;46.884;17.410;2023-07-22T10:13:24;27.22;48.99
76291;DHT22;65100;46.884;17.410;2023-07-22T10:15:51;27.08;47.73
76291;DHT22;65100;46.884;17.410;2023-07-22T10:18:17;27.10;48.73
76291;DHT22;65100;46.884;17.410;2023-07-22T10:20:45;27.03;46.61
76291;DHT22;65100;46.884;17.410;2023-07-22T10:23:13;26.89;47.27
76291;DHT22;65100;46.884;17.410;2023-07-22T10:25:39;26.96;47.15
76291;DHT22;65100;46.884;17.410;2023-07-22T10:28:06;27.04;48.39
76291;DHT22;65100;46.884;17.410;2023-07-22T10:30:33;27.11;47.73
76291;DHT22;65100;46.884;17.410;2023-07-22T10:32:58;27.17;48.73
76291;DHT22;65100;46.884;17.410;2023-07-22T10:38:06;27.16;47.90
76291;DHT22;65100;46.884;17.410;2023-07-22T10:40:32;27.16;47.42
76291;DHT22;65100;46.884;17.410;2023-07-22T10:43:00;27.24;46.74
76291;DHT22;65100;46.884;17.410;2023-07-22T10:45:32;27.23;46.31
76291;DHT22;65100;46.884;17.410;2023-07-22T10:48:19;27.11;45.03
76291;DHT22;65100;46.884;17.410;2023-07-22T10:50:50;27.08;46.27
76291;DHT22;65100;46.884;17.410;2023-07-22T11:04:28;27.40;43.46
76291;DHT22;65100;46.884;17.410;2023-07-22T11:06:58;27.36;44.83
76291;DHT22;65100;46.884;17.410;2023-07-22T11:14:24;27.31;44.83
76291;DHT22;65100;46.884;17.410;2023-07-22T11:16:54;27.37;43.72
76291;DHT22;65100;46.884;17.410;2023-07-22T11:19:22;27.36;44.41
76291;DHT22;65100;46.884;17.410;2023-07-22T11:21:50;27.37;45.94
76291;DHT22;65100;46.884;17.410;2023-07-22T11:24:16;27.46;43.80
76291;DHT22;65100;46.884;17.410;2023-07-22T11:26:42;27.51;45.70
76291;DHT22;65100;46.884;17.410;2023-07-22T11:29:09;27.54;44.71
76291;DHT22;65100;46.884;17.410;2023-07-22T11:31:36;27.30;43.58
76291;DHT22;65100;46.884;17.410;2023-07-22T11:34:03;27.31;44.98
76291;DHT22;65100;46.884;17.410;2023-07-22T11:36:29;27.46;44.36
76291;DHT22;65100;46.884;17.410;2023-07-22T11:39:04;27.58;43.18
76291;DHT22;65100;46.884;17.410;2023-07-22T11:41:30;27.74;43.89
76291;DHT22;65100;46.884;17.410;2023-07-22T11:44:04;27.90;45.27
76291;DHT22;65100;46.884;17.410;2023-07-22T11:47:00;28.01;42.87
76291;DHT22;65100;46.884;17.410;2023-07-22T11:49:33;27.92;43.33
76291;DHT22;65100;46.884;17.410;2023-07-22T11:52:03;27.88;42.20
76291;DHT22;65100;46.884;17.410;2023-07-22T11:54:31;27.84;42.32
76291;DHT22;65100;46.884;17.410;2023-07-22T11:57:10;27.84;43.34
76291;DHT22;65100;46.884;17.410;2023-07-22T11:59:43;27.84;43.88
76291;DHT22;65100;46.884;17.410;2023-07-22T12:02:16;27.91;42.45
76291;DHT22;65100;46.884;17.410;2023-07-22T12:05:20;28.18;41.69
76291;DHT22;65100;46.884;17.410;2023-07-22T12:07:46;28.21;40.95
76291;DHT22;65100;46.884;17.410;2023-07-22T12:10:12;27.97;42.06
76291;DHT22;65100;46.884;17.410;2023-07-22T12:12:41;28.00;42.23
76291;DHT22;65100;46.884;17.410;2023-07-22T12:15:12;28.06;43.07
76291;DHT22;65100;46.884;17.410;2023-07-22T12:20:19;28.06;41.96
76291;DHT22;65100;46.884;17.410;2023-07-22T12:22:48;28.01;41.58
76291;DHT22;65100;46.884;17.410;2023-07-22T12:25:14;28.08;41.58
76291;DHT22;65100;46.884;17.410;2023-07-22T12:27:39;28.21;40.10
76291;DHT22;65100;46.884;17.410;2023-07-22T12:30:05;28.29;42.86
76291;DHT22;65100;46.884;17.410;2023-07-22T12:32:32;28.22;41.37
76291;DHT22;65100;46.884;17.410;2023-07-22T12:34:58;28.09;41.81
76291;DHT22;65100;46.884;17.410;2023-07-22T12:37:24;28.14;42.70
76291;DHT22;65100;46.884;17.410;2023-07-22T12:39:51;28.15;41.99
76291;DHT22;65100;46.884;17.410;2023-07-22T12:42:16;28.15;41.82
76291;DHT22;65100;46.884;17.410;2023-07-22T12:44:41;28.12;40.06
76291;DHT22;65100;46.884;17.410;2023-07-22T12:47:07;27.87;42.52
76291;DHT22;65100;46.884;17.410;2023-07-22T12:49:33;28.19;43.26
76291;DHT22;65100;46.884;17.410;2023-07-22T12:51:59;28.12;43.75
76291;DHT22;65100;46.884;17.410;2023-07-22T12:54:29;27.98;42.15
76291;DHT22;65100;46.884;17.410;2023-07-22T12:56:56;27.57;41.91
76291;DHT22;65100;46.884;17.410;2023-07-22T12:59:22;27.80;44.18
76291;DHT22;65100;46.884;17.410;2023-07-22T13:01:47;28.02;43.75
76291;DHT22;65100;46.884;17.410;2023-07-22T13:04:13;28.09;40.88
76291;DHT22;65100;46.884;17.410;2023-07-22T13:06:38;28.18;42.42
76291;DHT22;65100;46.884;17.410;2023-07-22T13:09:04;28.19;39.99
76291;DHT22;65100;46.884;17.410;2023-07-22T13:11:29;28.18;40.53
76291;DHT22;65100;46.884;17.410;2023-07-22T13:13:55;28.29;44.22
76291;DHT22;65100;46.884;17.410;2023-07-22T13:16:20;28.34;42.44
76291;DHT22;65100;46.884;17.410;2023-07-22T13:18:45;28.42;42.85
76291;DHT22;65100;46.884;17.410;2023-07-22T13:21:11;28.29;42.53
76291;DHT22;65100;46.884;17.410;2023-07-22T13:23:37;28.18;42.59
76291;DHT22;65100;46.884;17.410;2023-07-22T13:26:02;28.18;39.52
76291;DHT22;65100;46.884;17.410;2023-07-22T13:28:28;27.98;40.28
76291;DHT22;65100;46.884;17.410;2023-07-22T13:30:53;28.16;41.27
76291;DHT22;65100;46.884;17.410;2023-07-22T13:33:18;28.09;39.99
76291;DHT22;65100;46.884;17.410;2023-07-22T13:35:44;28.09;42.39
76291;DHT22;65100;46.884;17.410;2023-07-22T13:38:09;27.95;41.58
76291;DHT22;65100;46.884;17.410;2023-07-22T13:40:35;28.06;41.92
76291;DHT22;65100;46.884;17.410;2023-07-22T13:43:01;28.01;43.17
76291;DHT22;65100;46.884;17.410;2023-07-22T13:45:27;27.98;41.22
76291;DHT22;65100;46.884;17.410;2023-07-22T13:47:52;27.92;42.07
76291;DHT22;65100;46.884;17.410;2023-07-22T13:50:18;28.08;43.11
76291;DHT22;65100;46.884;17.410;2023-07-22T13:52:43;28.01;42.08
76291;DHT22;65100;46.884;17.410;2023-07-22T13:55:09;27.77;42.36
76291;DHT22;65100;46.884;17.410;2023-07-22T13:57:35;27.84;43.67
76291;DHT22;65100;46.884;17.410;2023-07-22T14:00:01;27.81;42.79
76291;DHT22;65100;46.884;17.410;2023-07-22T14:02:26;27.95;43.53
76291;DHT22;65100;46.884;17.410;2023-07-22T14:04:51;27.97;43.24
76291;DHT22;65100;46.884;17.410;2023-07-22T14:07:17;28.04;43.55
76291;DHT22;65100;46.884;17.410;2023-07-22T14:09:43;28.22;41.66
76291;DHT22;65100;46.884;17.410;2023-07-22T14:12:08;27.90;40.27
76291;DHT22;65100;46.884;17.410;2023-07-22T14:14:34;27.82;41.94
76291;DHT22;65100;46.884;17.410;2023-07-22T14:17:00;27.92;42.69
76291;DHT22;65100;46.884;17.410;2023-07-22T14:19:31;27.94;41.88
76291;DHT22;65100;46.884;17.410;2023-07-22T14:21:56;27.87;43.62
76291;DHT22;65100;46.884;17.410;2023-07-22T14:24:24;27.47;41.29
76291;DHT22;65100;46.884;17.410;2023-07-22T14:26:50;27.46;42.37
76291;DHT22;65100;46.884;17.410;2023-07-22T14:29:15;27.48;44.99
76291;DHT22;65100;46.884;17.410;2023-07-22T14:31:42;27.58;44.74
76291;DHT22;65100;46.884;17.410;2023-07-22T14:34:28;27.67;44.63
76291;DHT22;65100;46.884;17.410;2023-07-22T14:37:14;27.62;44.13
76291;DHT22;65100;46.884;17.410;2023-07-22T14:39:40;27.55;44.15
76291;DHT22;65100;46.884;17.410;2023-07-22T14:42:06;27.57;44.30
76291;DHT22;65100;46.884;17.410;2023-07-22T14:44:31;27.47;43.09
76291;DHT22;65100;46.884;17.410;2023-07-22T14:46:56;27.57;43.40
76291;DHT22;65100;46.884;17.410;2023-07-22T14:49:22;27.57;44.11
76291;DHT22;65100;46.884;17.410;2023-07-22T14:51:48;27.54;43.43
76291;DHT22;65100;46.884;17.410;2023-07-22T14:54:13;27.58;46.00
76291;DHT22;65100;46.884;17.410;2023-07-22T14:56:38;27.55;45.14
76291;DHT22;65100;46.884;17.410;2023-07-22T14:59:04;27.51;45.60
76291;DHT22;65100;46.884;17.410;2023-07-22T15:01:37;27.43;45.24
76291;DHT22;65100;46.884;17.410;2023-07-22T15:04:03;27.43;45.54
76291;DHT22;65100;46.884;17.410;2023-07-22T15:06:28;27.31;45.65
76291;DHT22;65100;46.884;17.410;2023-07-22T15:08:56;27.31;45.27
76291;DHT22;65100;46.884;17.410;2023-07-22T15:11:21;27.20;44.64
76291;DHT22;65100;46.884;17.410;2023-07-22T15:13:47;27.26;46.67
76291;DHT22;65100;46.884;17.410;2023-07-22T15:16:14;27.18;47.65
76291;DHT22;65100;46.884;17.410;2023-07-22T15:18:40;27.27;46.39
76291;DHT22;65100;46.884;17.410;2023-07-22T15:21:05;26.97;45.61
76291;DHT22;65100;46.884;17.410;2023-07-22T15:23:31;27.07;46.45
76291;DHT22;65100;46.884;17.410;2023-07-22T15:25:57;27.02;47.34
76291;DHT22;65100;46.884;17.410;2023-07-22T15:28:23;27.03;47.81
76291;DHT22;65100;46.884;17.410;2023-07-22T15:30:49;26.97;47.72
76291;DHT22;65100;46.884;17.410;2023-07-22T15:33:14;26.86;48.30
76291;DHT22;65100;46.884;17.410;2023-07-22T15:35:40;26.75;47.67
76291;DHT22;65100;46.884;17.410;2023-07-22T15:38:06;26.73;48.58
76291;DHT22;65100;46.884;17.410;2023-07-22T15:40:35;26.68;47.79